sensor_id;sensor_type;location;lat;lon;timestamp;P1;durP1;ratioP1;P2;durP2;ratioP2
36355;SDS011;22384;54.302;18.596;2023-09-19T00:01:08;20.10;;;13.32;;
36355;SDS011;22384;54.302;18.596;2023-09-19T00:03:34;19.13;;;13.20;;
36355;SDS011;22384;54.302;18.596;2023-09-19T00:06:02;20.17;;;14.02;;
36355;SDS011;22384;54.302;18.596;2023-09-19T00:08:29;15.60;;;13.15;;
36355;SDS011;22384;54.302;18.596;2023-09-19T00:10:55;18.10;;;13.75;;
36355;SDS011;22384;54.302;18.596;2023-09-19T00:13:29;17.70;;;13.82;;
36355;SDS011;22384;54.302;18.596;2023-09-19T00:15:56;22.67;;;13.90;;
36355;SDS011;22384;54.302;18.596;2023-09-19T00:18:24;19.55;;;13.55;;
36355;SDS011;22384;54.302;18.596;2023-09-19T00:20:56;21.60;;;13.23;;
36355;SDS011;22384;54.302;18.596;2023-09-19T00:23:22;17.48;;;13.05;;
36355;SDS011;22384;54.302;18.596;2023-09-19T00:25:49;23.90;;;14.05;;
36355;SDS011;22384;54.302;18.596;2023-09-19T00:28:16;20.45;;;13.30;;
36355;SDS011;22384;54.302;18.596;2023-09-19T00:30:43;23.08;;;13.65;;
36355;SDS011;22384;54.302;18.596;2023-09-19T00:33:10;17.77;;;13.35;;
36355;SDS011;22384;54.302;18.596;2023-09-19T00:35:46;18.02;;;13.13;;
36355;SDS011;22384;54.302;18.596;2023-09-19T00:38:12;22.92;;;14.43;;
36355;SDS011;22384;54.302;18.596;2023-09-19T00:40:45;17.53;;;13.77;;
36355;SDS011;22384;54.302;18.596;2023-09-19T00:43:11;19.83;;;14.15;;
36355;SDS011;22384;54.302;18.596;2023-09-19T00:45:37;16.15;;;13.43;;
36355;SDS011;22384;54.302;18.596;2023-09-19T00:48:04;18.35;;;13.38;;
36355;SDS011;22384;54.302;18.596;2023-09-19T00:50:34;20.27;;;14.13;;
36355;SDS011;22384;54.302;18.596;2023-09-19T00:53:00;20.13;;;14.60;;
36355;SDS011;22384;54.302;18.596;2023-09-19T00:55:26;17.00;;;12.93;;
36355;SDS011;22384;54.302;18.596;2023-09-19T00:57:57;18.38;;;14.90;;
36355;SDS011;22384;54.302;18.596;2023-09-19T01:00:23;18.85;;;15.02;;
36355;SDS011;22384;54.302;18.596;2023-09-19T01:02:50;18.73;;;14.57;;
36355;SDS011;22384;54.302;18.596;2023-09-19T01:05:16;19.23;;;14.27;;
36355;SDS011;22384;54.302;18.596;2023-09-19T01:07:42;19.50;;;14.77;;
36355;SDS011;22384;54.302;18.596;2023-09-19T01:10:13;21.02;;;14.80;;
36355;SDS011;22384;54.302;18.596;2023-09-19T01:23:20;26.50;;;15.48;;
36355;SDS011;22384;54.302;18.596;2023-09-19T01:28:39;19.73;;;15.05;;
36355;SDS011;22384;54.302;18.596;2023-09-19T01:31:09;18.50;;;14.88;;
36355;SDS011;22384;54.302;18.596;2023-09-19T01:36:30;18.50;;;14.38;;
36355;SDS011;22384;54.302;18.596;2023-09-19T01:38:59;22.95;;;14.73;;
36355;SDS011;22384;54.302;18.596;2023-09-19T01:41:38;21.00;;;14.50;;
36355;SDS011;22384;54.302;18.596;2023-09-19T01:44:08;19.00;;;14.80;;
36355;SDS011;22384;54.302;18.596;2023-09-19T01:46:39;21.63;;;15.52;;
36355;SDS011;22384;54.302;18.596;2023-09-19T01:52:09;19.33;;;15.60;;
36355;SDS011;22384;54.302;18.596;2023-09-19T01:54:40;19.02;;;15.63;;
36355;SDS011;22384;54.302;18.596;2023-09-19T01:57:09;17.38;;;14.32;;
36355;SDS011;22384;54.302;18.596;2023-09-19T01:59:45;22.52;;;14.27;;
36355;SDS011;22384;54.302;18.596;2023-09-19T02:02:11;15.52;;;12.75;;
36355;SDS011;22384;54.302;18.596;2023-09-19T02:04:38;24.35;;;12.85;;
36355;SDS011;22384;54.302;18.596;2023-09-19T02:07:04;20.52;;;11.88;;
36355;SDS011;22384;54.302;18.596;2023-09-19T02:09:33;15.30;;;11.57;;
36355;SDS011;22384;54.302;18.596;2023-09-19T02:12:00;18.42;;;11.40;;
36355;SDS011;22384;54.302;18.596;2023-09-19T02:14:29;14.15;;;10.73;;
36355;SDS011;22384;54.302;18.596;2023-09-19T02:16:55;15.70;;;10.00;;
36355;SDS011;22384;54.302;18.596;2023-09-19T02:19:21;13.95;;;8.82;;
36355;SDS011;22384;54.302;18.596;2023-09-19T02:21:47;12.05;;;8.98;;
36355;SDS011;22384;54.302;18.596;2023-09-19T02:24:14;10.80;;;8.23;;
36355;SDS011;22384;54.302;18.596;2023-09-19T02:26:40;11.48;;;8.32;;
36355;SDS011;22384;54.302;18.596;2023-09-19T02:29:06;12.15;;;8.20;;
36355;SDS011;22384;54.302;18.596;2023-09-19T02:31:32;11.68;;;6.97;;
36355;SDS011;22384;54.302;18.596;2023-09-19T02:33:58;12.85;;;6.50;;
36355;SDS011;22384;54.302;18.596;2023-09-19T02:36:25;14.98;;;6.55;;
36355;SDS011;22384;54.302;18.596;2023-09-19T02:38:51;11.43;;;6.57;;
36355;SDS011;22384;54.302;18.596;2023-09-19T02:41:17;8.27;;;6.20;;
36355;SDS011;22384;54.302;18.596;2023-09-19T02:43:43;9.32;;;5.38;;
36355;SDS011;22384;54.302;18.596;2023-09-19T02:46:09;8.25;;;5.80;;
36355;SDS011;22384;54.302;18.596;2023-09-19T02:48:36;8.43;;;5.65;;
36355;SDS011;22384;54.302;18.596;2023-09-19T02:51:03;11.20;;;6.63;;
36355;SDS011;22384;54.302;18.596;2023-09-19T02:53:30;9.07;;;6.15;;
36355;SDS011;22384;54.302;18.596;2023-09-19T02:55:57;11.65;;;5.57;;
36355;SDS011;22384;54.302;18.596;2023-09-19T02:58:24;7.22;;;6.00;;
36355;SDS011;22384;54.302;18.596;2023-09-19T03:00:50;9.23;;;5.45;;
36355;SDS011;22384;54.302;18.596;2023-09-19T03:03:16;8.80;;;5.28;;
36355;SDS011;22384;54.302;18.596;2023-09-19T03:05:42;7.55;;;5.38;;
36355;SDS011;22384;54.302;18.596;2023-09-19T03:08:12;9.48;;;4.60;;
36355;SDS011;22384;54.302;18.596;2023-09-19T03:10:40;9.07;;;4.60;;
36355;SDS011;22384;54.302;18.596;2023-09-19T03:13:06;6.15;;;4.72;;
36355;SDS011;22384;54.302;18.596;2023-09-19T03:15:34;9.45;;;4.97;;
36355;SDS011;22384;54.302;18.596;2023-09-19T03:18:03;8.80;;;4.35;;
36355;SDS011;22384;54.302;18.596;2023-09-19T03:20:30;6.07;;;4.30;;
36355;SDS011;22384;54.302;18.596;2023-09-19T03:22:56;6.22;;;3.60;;
36355;SDS011;22384;54.302;18.596;2023-09-19T03:25:22;7.50;;;3.88;;
36355;SDS011;22384;54.302;18.596;2023-09-19T03:27:49;8.40;;;3.75;;
36355;SDS011;22384;54.302;18.596;2023-09-19T03:30:15;5.55;;;3.65;;
36355;SDS011;22384;54.302;18.596;2023-09-19T03:32:45;7.93;;;3.88;;
36355;SDS011;22384;54.302;18.596;2023-09-19T03:35:11;5.85;;;3.00;;
36355;SDS011;22384;54.302;18.596;2023-09-19T03:37:39;7.57;;;3.58;;
36355;SDS011;22384;54.302;18.596;2023-09-19T03:40:05;5.03;;;3.42;;
36355;SDS011;22384;54.302;18.596;2023-09-19T03:42:32;11.05;;;3.53;;
36355;SDS011;22384;54.302;18.596;2023-09-19T03:45:01;6.90;;;3.13;;
36355;SDS011;22384;54.302;18.596;2023-09-19T03:47:29;24.73;;;12.30;;
36355;SDS011;22384;54.302;18.596;2023-09-19T03:49:55;10.52;;;5.57;;
36355;SDS011;22384;54.302;18.596;2023-09-19T03:52:21;28.58;;;11.18;;
36355;SDS011;22384;54.302;18.596;2023-09-19T03:54:47;35.03;;;12.18;;
36355;SDS011;22384;54.302;18.596;2023-09-19T03:57:14;28.88;;;11.70;;
36355;SDS011;22384;54.302;18.596;2023-09-19T03:59:45;21.60;;;7.07;;
36355;SDS011;22384;54.302;18.596;2023-09-19T04:02:11;13.68;;;5.07;;
36355;SDS011;22384;54.302;18.596;2023-09-19T04:04:47;10.38;;;4.22;;
36355;SDS011;22384;54.302;18.596;2023-09-19T04:07:13;9.20;;;3.47;;
36355;SDS011;22384;54.302;18.596;2023-09-19T04:09:39;6.35;;;3.50;;
36355;SDS011;22384;54.302;18.596;2023-09-19T04:12:05;4.78;;;3.45;;
36355;SDS011;22384;54.302;18.596;2023-09-19T04:14:31;9.02;;;3.88;;
36355;SDS011;22384;54.302;18.596;2023-09-19T04:16:57;6.03;;;3.22;;
36355;SDS011;22384;54.302;18.596;2023-09-19T04:19:23;7.20;;;3.22;;
36355;SDS011;22384;54.302;18.596;2023-09-19T04:21:49;8.30;;;3.85;;
36355;SDS011;22384;54.302;18.596;2023-09-19T04:24:15;8.27;;;4.25;;
36355;SDS011;22384;54.302;18.596;2023-09-19T04:26:44;6.03;;;4.07;;
36355;SDS011;22384;54.302;18.596;2023-09-19T04:29:10;11.52;;;4.30;;
36355;SDS011;22384;54.302;18.596;2023-09-19T04:31:36;9.10;;;3.97;;
36355;SDS011;22384;54.302;18.596;2023-09-19T04:34:03;8.93;;;4.43;;
36355;SDS011;22384;54.302;18.596;2023-09-19T04:36:29;9.48;;;5.53;;
36355;SDS011;22384;54.302;18.596;2023-09-19T04:38:55;9.65;;;5.05;;
36355;SDS011;22384;54.302;18.596;2023-09-19T04:41:21;8.77;;;5.35;;
36355;SDS011;22384;54.302;18.596;2023-09-19T04:43:47;13.98;;;5.47;;
36355;SDS011;22384;54.302;18.596;2023-09-19T04:46:15;11.20;;;5.18;;
36355;SDS011;22384;54.302;18.596;2023-09-19T04:48:42;7.75;;;4.95;;
36355;SDS011;22384;54.302;18.596;2023-09-19T04:51:08;8.93;;;4.60;;
36355;SDS011;22384;54.302;18.596;2023-09-19T04:53:35;9.10;;;4.95;;
36355;SDS011;22384;54.302;18.596;2023-09-19T04:56:02;9.77;;;4.75;;
36355;SDS011;22384;54.302;18.596;2023-09-19T04:58:28;8.25;;;4.40;;
36355;SDS011;22384;54.302;18.596;2023-09-19T05:00:55;8.18;;;4.97;;
36355;SDS011;22384;54.302;18.596;2023-09-19T05:03:21;6.05;;;4.53;;
36355;SDS011;22384;54.302;18.596;2023-09-19T05:05:47;8.30;;;4.95;;
36355;SDS011;22384;54.302;18.596;2023-09-19T05:08:14;9.13;;;4.82;;
36355;SDS011;22384;54.302;18.596;2023-09-19T05:10:40;9.45;;;5.00;;
36355;SDS011;22384;54.302;18.596;2023-09-19T05:13:06;13.27;;;4.43;;
36355;SDS011;22384;54.302;18.596;2023-09-19T05:15:33;10.75;;;4.47;;
36355;SDS011;22384;54.302;18.596;2023-09-19T05:18:00;9.88;;;4.82;;
36355;SDS011;22384;54.302;18.596;2023-09-19T05:20:26;6.90;;;4.40;;
36355;SDS011;22384;54.302;18.596;2023-09-19T05:23:06;9.55;;;5.32;;
36355;SDS011;22384;54.302;18.596;2023-09-19T05:25:34;14.40;;;4.50;;
36355;SDS011;22384;54.302;18.596;2023-09-19T05:28:07;9.57;;;4.38;;
36355;SDS011;22384;54.302;18.596;2023-09-19T05:30:34;7.93;;;4.60;;
36355;SDS011;22384;54.302;18.596;2023-09-19T05:33:08;12.30;;;5.35;;
36355;SDS011;22384;54.302;18.596;2023-09-19T05:35:34;7.30;;;4.68;;
36355;SDS011;22384;54.302;18.596;2023-09-19T05:38:05;9.43;;;4.22;;
36355;SDS011;22384;54.302;18.596;2023-09-19T05:40:34;5.63;;;4.10;;
36355;SDS011;22384;54.302;18.596;2023-09-19T05:43:00;9.65;;;4.80;;
36355;SDS011;22384;54.302;18.596;2023-09-19T05:45:27;9.68;;;4.95;;
36355;SDS011;22384;54.302;18.596;2023-09-19T05:47:53;6.60;;;4.22;;
36355;SDS011;22384;54.302;18.596;2023-09-19T05:50:29;7.75;;;4.65;;
36355;SDS011;22384;54.302;18.596;2023-09-19T05:52:57;8.70;;;4.32;;
36355;SDS011;22384;54.302;18.596;2023-09-19T05:55:23;8.57;;;4.53;;
36355;SDS011;22384;54.302;18.596;2023-09-19T05:57:53;5.90;;;4.68;;
36355;SDS011;22384;54.302;18.596;2023-09-19T06:00:22;7.50;;;5.22;;
36355;SDS011;22384;54.302;18.596;2023-09-19T06:02:52;10.10;;;4.30;;
36355;SDS011;22384;54.302;18.596;2023-09-19T06:05:18;8.32;;;4.50;;
36355;SDS011;22384;54.302;18.596;2023-09-19T06:07:45;8.57;;;4.60;;
36355;SDS011;22384;54.302;18.596;2023-09-19T06:10:11;8.45;;;4.18;;
36355;SDS011;22384;54.302;18.596;2023-09-19T06:12:47;7.45;;;4.35;;
36355;SDS011;22384;54.302;18.596;2023-09-19T06:15:13;6.72;;;4.20;;
36355;SDS011;22384;54.302;18.596;2023-09-19T06:17:47;8.85;;;4.60;;
36355;SDS011;22384;54.302;18.596;2023-09-19T06:20:13;9.60;;;4.35;;
36355;SDS011;22384;54.302;18.596;2023-09-19T06:22:44;12.10;;;4.38;;
36355;SDS011;22384;54.302;18.596;2023-09-19T06:25:10;7.75;;;3.95;;
36355;SDS011;22384;54.302;18.596;2023-09-19T06:27:37;6.35;;;3.78;;
36355;SDS011;22384;54.302;18.596;2023-09-19T06:30:06;8.65;;;3.90;;
36355;SDS011;22384;54.302;18.596;2023-09-19T06:32:33;9.70;;;3.75;;
36355;SDS011;22384;54.302;18.596;2023-09-19T06:34:59;6.45;;;3.53;;
36355;SDS011;22384;54.302;18.596;2023-09-19T06:37:28;7.28;;;3.40;;
36355;SDS011;22384;54.302;18.596;2023-09-19T06:39:54;7.78;;;4.32;;
36355;SDS011;22384;54.302;18.596;2023-09-19T06:42:22;6.53;;;3.22;;
36355;SDS011;22384;54.302;18.596;2023-09-19T06:44:48;5.18;;;3.13;;
36355;SDS011;22384;54.302;18.596;2023-09-19T06:47:14;5.68;;;3.42;;
36355;SDS011;22384;54.302;18.596;2023-09-19T06:49:41;6.93;;;3.30;;
36355;SDS011;22384;54.302;18.596;2023-09-19T06:52:09;6.25;;;3.35;;
36355;SDS011;22384;54.302;18.596;2023-09-19T06:54:35;8.07;;;4.35;;
36355;SDS011;22384;54.302;18.596;2023-09-19T06:57:02;7.57;;;3.10;;
36355;SDS011;22384;54.302;18.596;2023-09-19T06:59:28;9.23;;;3.85;;
36355;SDS011;22384;54.302;18.596;2023-09-19T07:01:54;6.38;;;3.40;;
36355;SDS011;22384;54.302;18.596;2023-09-19T07:04:20;5.72;;;3.30;;
36355;SDS011;22384;54.302;18.596;2023-09-19T07:06:49;7.10;;;3.50;;
36355;SDS011;22384;54.302;18.596;2023-09-19T07:09:16;8.73;;;3.03;;
36355;SDS011;22384;54.302;18.596;2023-09-19T07:11:44;4.50;;;3.10;;
36355;SDS011;22384;54.302;18.596;2023-09-19T07:14:11;10.23;;;4.13;;
36355;SDS011;22384;54.302;18.596;2023-09-19T07:16:37;5.22;;;3.20;;
36355;SDS011;22384;54.302;18.596;2023-09-19T07:19:04;6.53;;;3.60;;
36355;SDS011;22384;54.302;18.596;2023-09-19T07:21:30;6.07;;;3.40;;
36355;SDS011;22384;54.302;18.596;2023-09-19T07:23:59;4.90;;;3.25;;
36355;SDS011;22384;54.302;18.596;2023-09-19T07:26:26;4.70;;;3.30;;
36355;SDS011;22384;54.302;18.596;2023-09-19T07:28:53;8.30;;;3.10;;
36355;SDS011;22384;54.302;18.596;2023-09-19T07:31:19;9.45;;;3.28;;
36355;SDS011;22384;54.302;18.596;2023-09-19T07:33:45;5.55;;;2.90;;
36355;SDS011;22384;54.302;18.596;2023-09-19T07:36:11;4.45;;;3.33;;
36355;SDS011;22384;54.302;18.596;2023-09-19T07:38:41;8.30;;;3.15;;
36355;SDS011;22384;54.302;18.596;2023-09-19T07:41:07;7.88;;;3.30;;
36355;SDS011;22384;54.302;18.596;2023-09-19T07:43:34;4.90;;;3.20;;
36355;SDS011;22384;54.302;18.596;2023-09-19T07:46:06;7.00;;;3.10;;
36355;SDS011;22384;54.302;18.596;2023-09-19T07:48:34;4.65;;;3.30;;
36355;SDS011;22384;54.302;18.596;2023-09-19T07:51:04;3.80;;;2.80;;
36355;SDS011;22384;54.302;18.596;2023-09-19T07:53:31;4.68;;;3.10;;
36355;SDS011;22384;54.302;18.596;2023-09-19T07:56:06;6.07;;;2.75;;
36355;SDS011;22384;54.302;18.596;2023-09-19T07:58:33;7.07;;;2.97;;
36355;SDS011;22384;54.302;18.596;2023-09-19T08:01:06;8.60;;;3.30;;
36355;SDS011;22384;54.302;18.596;2023-09-19T08:03:33;8.32;;;2.90;;
36355;SDS011;22384;54.302;18.596;2023-09-19T08:06:00;3.35;;;2.65;;
36355;SDS011;22384;54.302;18.596;2023-09-19T08:08:26;7.80;;;2.85;;
36355;SDS011;22384;54.302;18.596;2023-09-19T08:10:53;8.18;;;3.15;;
36355;SDS011;22384;54.302;18.596;2023-09-19T08:13:21;6.28;;;3.33;;
36355;SDS011;22384;54.302;18.596;2023-09-19T08:15:47;7.32;;;2.83;;
36355;SDS011;22384;54.302;18.596;2023-09-19T08:18:13;9.25;;;2.72;;
36355;SDS011;22384;54.302;18.596;2023-09-19T08:20:40;6.70;;;3.03;;
36355;SDS011;22384;54.302;18.596;2023-09-19T08:23:07;5.75;;;2.78;;
36355;SDS011;22384;54.302;18.596;2023-09-19T08:25:33;7.07;;;3.22;;
36355;SDS011;22384;54.302;18.596;2023-09-19T08:27:59;7.43;;;2.92;;
36355;SDS011;22384;54.302;18.596;2023-09-19T08:30:28;8.50;;;3.47;;
36355;SDS011;22384;54.302;18.596;2023-09-19T08:33:01;5.10;;;3.20;;
36355;SDS011;22384;54.302;18.596;2023-09-19T08:35:31;9.70;;;2.75;;
36355;SDS011;22384;54.302;18.596;2023-09-19T08:37:57;4.05;;;2.25;;
36355;SDS011;22384;54.302;18.596;2023-09-19T08:40:25;4.90;;;2.35;;
36355;SDS011;22384;54.302;18.596;2023-09-19T08:42:54;4.82;;;2.22;;
36355;SDS011;22384;54.302;18.596;2023-09-19T08:45:21;6.78;;;2.50;;
36355;SDS011;22384;54.302;18.596;2023-09-19T08:56:07;5.25;;;2.80;;
36355;SDS011;22384;54.302;18.596;2023-09-19T08:58:38;5.97;;;2.60;;
36355;SDS011;22384;54.302;18.596;2023-09-19T09:01:05;4.25;;;2.15;;
36355;SDS011;22384;54.302;18.596;2023-09-19T09:03:35;6.30;;;2.20;;
36355;SDS011;22384;54.302;18.596;2023-09-19T09:06:02;3.42;;;1.80;;
36355;SDS011;22384;54.302;18.596;2023-09-19T09:08:29;3.42;;;1.70;;
36355;SDS011;22384;54.302;18.596;2023-09-19T09:10:56;10.13;;;1.70;;
36355;SDS011;22384;54.302;18.596;2023-09-19T09:13:22;5.47;;;1.80;;
36355;SDS011;22384;54.302;18.596;2023-09-19T09:15:51;2.45;;;1.70;;
36355;SDS011;22384;54.302;18.596;2023-09-19T09:18:19;3.85;;;1.80;;
36355;SDS011;22384;54.302;18.596;2023-09-19T09:20:45;5.07;;;1.90;;
36355;SDS011;22384;54.302;18.596;2023-09-19T09:23:13;4.10;;;1.75;;
36355;SDS011;22384;54.302;18.596;2023-09-19T09:25:54;6.78;;;1.77;;
36355;SDS011;22384;54.302;18.596;2023-09-19T09:28:22;6.68;;;2.55;;
36355;SDS011;22384;54.302;18.596;2023-09-19T09:30:48;8.15;;;2.30;;
36355;SDS011;22384;54.302;18.596;2023-09-19T09:33:18;5.13;;;2.13;;
36355;SDS011;22384;54.302;18.596;2023-09-19T09:35:51;4.20;;;1.60;;
36355;SDS011;22384;54.302;18.596;2023-09-19T09:38:20;3.33;;;1.40;;
36355;SDS011;22384;54.302;18.596;2023-09-19T09:40:51;3.35;;;1.48;;
36355;SDS011;22384;54.302;18.596;2023-09-19T09:43:32;7.65;;;1.58;;
36355;SDS011;22384;54.302;18.596;2023-09-19T09:48:35;2.58;;;1.40;;
36355;SDS011;22384;54.302;18.596;2023-09-19T09:51:04;3.00;;;1.40;;
36355;SDS011;22384;54.302;18.596;2023-09-19T09:53:32;3.47;;;1.33;;
36355;SDS011;22384;54.302;18.596;2023-09-19T09:58:31;4.28;;;1.50;;
36355;SDS011;22384;54.302;18.596;2023-09-19T10:00:57;2.42;;;1.50;;
36355;SDS011;22384;54.302;18.596;2023-09-19T10:03:31;5.22;;;1.60;;
36355;SDS011;22384;54.302;18.596;2023-09-19T10:05:59;4.68;;;1.60;;
36355;SDS011;22384;54.302;18.596;2023-09-19T10:08:34;2.05;;;1.20;;
36355;SDS011;22384;54.302;18.596;2023-09-19T10:11:01;3.35;;;1.13;;
36355;SDS011;22384;54.302;18.596;2023-09-19T10:13:40;3.63;;;1.42;;
36355;SDS011;22384;54.302;18.596;2023-09-19T10:16:07;5.10;;;1.58;;
36355;SDS011;22384;54.302;18.596;2023-09-19T10:18:35;2.35;;;1.30;;
36355;SDS011;22384;54.302;18.596;2023-09-19T10:21:04;2.60;;;1.50;;
36355;SDS011;22384;54.302;18.596;2023-09-19T10:23:32;2.47;;;1.27;;
36355;SDS011;22384;54.302;18.596;2023-09-19T10:25:59;4.53;;;1.48;;
36355;SDS011;22384;54.302;18.596;2023-09-19T10:28:27;4.30;;;1.40;;
36355;SDS011;22384;54.302;18.596;2023-09-19T10:30:54;2.10;;;1.23;;
36355;SDS011;22384;54.302;18.596;2023-09-19T10:33:24;3.92;;;1.70;;
36355;SDS011;22384;54.302;18.596;2023-09-19T10:35:55;3.65;;;1.40;;
36355;SDS011;22384;54.302;18.596;2023-09-19T10:38:25;3.23;;;1.70;;
36355;SDS011;22384;54.302;18.596;2023-09-19T10:40:52;4.03;;;1.27;;
36355;SDS011;22384;54.302;18.596;2023-09-19T10:43:19;2.78;;;1.17;;
36355;SDS011;22384;54.302;18.596;2023-09-19T10:45:46;3.97;;;1.70;;
36355;SDS011;22384;54.302;18.596;2023-09-19T10:48:14;5.28;;;1.35;;
36355;SDS011;22384;54.302;18.596;2023-09-19T10:50:52;6.03;;;1.65;;
36355;SDS011;22384;54.302;18.596;2023-09-19T10:53:20;5.32;;;1.40;;
36355;SDS011;22384;54.302;18.596;2023-09-19T10:55:56;2.83;;;1.10;;
36355;SDS011;22384;54.302;18.596;2023-09-19T10:58:28;5.55;;;1.20;;
36355;SDS011;22384;54.302;18.596;2023-09-19T11:00:55;7.32;;;1.50;;
36355;SDS011;22384;54.302;18.596;2023-09-19T11:03:22;3.03;;;1.33;;
36355;SDS011;22384;54.302;18.596;2023-09-19T11:06:08;4.60;;;1.52;;
36355;SDS011;22384;54.302;18.596;2023-09-19T11:11:46;2.90;;;1.08;;
36355;SDS011;22384;54.302;18.596;2023-09-19T11:22:26;2.75;;;1.40;;
36355;SDS011;22384;54.302;18.596;2023-09-19T11:30:33;7.50;;;1.75;;
36355;SDS011;22384;54.302;18.596;2023-09-19T11:43:51;7.95;;;1.60;;
36355;SDS011;22384;54.302;18.596;2023-09-19T11:46:19;4.70;;;1.73;;
36355;SDS011;22384;54.302;18.596;2023-09-19T11:48:49;8.10;;;1.33;;
36355;SDS011;22384;54.302;18.596;2023-09-19T11:51:22;6.28;;;1.60;;
36355;SDS011;22384;54.302;18.596;2023-09-19T11:53:51;2.25;;;1.38;;
36355;SDS011;22384;54.302;18.596;2023-09-19T11:56:18;6.78;;;1.48;;
36355;SDS011;22384;54.302;18.596;2023-09-19T11:58:45;3.55;;;1.52;;
36355;SDS011;22384;54.302;18.596;2023-09-19T12:01:14;6.15;;;1.30;;
36355;SDS011;22384;54.302;18.596;2023-09-19T12:03:45;4.65;;;1.38;;
36355;SDS011;22384;54.302;18.596;2023-09-19T12:06:15;3.97;;;1.48;;
36355;SDS011;22384;54.302;18.596;2023-09-19T12:08:42;11.90;;;1.33;;
36355;SDS011;22384;54.302;18.596;2023-09-19T12:11:15;4.72;;;1.52;;
36355;SDS011;22384;54.302;18.596;2023-09-19T12:13:45;3.00;;;1.45;;
36355;SDS011;22384;54.302;18.596;2023-09-19T12:16:18;4.60;;;1.17;;
36355;SDS011;22384;54.302;18.596;2023-09-19T12:18:46;2.53;;;1.25;;
36355;SDS011;22384;54.302;18.596;2023-09-19T12:21:25;3.15;;;1.50;;
36355;SDS011;22384;54.302;18.596;2023-09-19T12:23:57;2.80;;;1.20;;
36355;SDS011;22384;54.302;18.596;2023-09-19T12:26:23;2.80;;;1.10;;
36355;SDS011;22384;54.302;18.596;2023-09-19T12:28:49;7.07;;;1.20;;
36355;SDS011;22384;54.302;18.596;2023-09-19T12:31:17;5.55;;;1.92;;
36355;SDS011;22384;54.302;18.596;2023-09-19T12:33:44;4.97;;;1.73;;
36355;SDS011;22384;54.302;18.596;2023-09-19T12:36:23;5.40;;;1.27;;
36355;SDS011;22384;54.302;18.596;2023-09-19T12:38:59;3.17;;;1.30;;
36355;SDS011;22384;54.302;18.596;2023-09-19T12:41:25;6.13;;;1.75;;
36355;SDS011;22384;54.302;18.596;2023-09-19T12:43:53;5.65;;;1.45;;
36355;SDS011;22384;54.302;18.596;2023-09-19T12:46:22;6.80;;;1.50;;
36355;SDS011;22384;54.302;18.596;2023-09-19T12:51:38;3.38;;;1.10;;
36355;SDS011;22384;54.302;18.596;2023-09-19T12:54:04;3.85;;;1.50;;
36355;SDS011;22384;54.302;18.596;2023-09-19T12:56:30;6.53;;;1.25;;
36355;SDS011;22384;54.302;18.596;2023-09-19T12:59:06;6.18;;;1.50;;
36355;SDS011;22384;54.302;18.596;2023-09-19T13:01:34;5.32;;;1.60;;
36355;SDS011;22384;54.302;18.596;2023-09-19T13:06:37;5.15;;;1.42;;
36355;SDS011;22384;54.302;18.596;2023-09-19T13:09:08;6.32;;;1.52;;
36355;SDS011;22384;54.302;18.596;2023-09-19T13:11:38;5.95;;;1.48;;
36355;SDS011;22384;54.302;18.596;2023-09-19T13:19:44;2.92;;;1.38;;
36355;SDS011;22384;54.302;18.596;2023-09-19T13:24:58;3.53;;;1.33;;
36355;SDS011;22384;54.302;18.596;2023-09-19T13:27:25;9.13;;;1.63;;
36355;SDS011;22384;54.302;18.596;2023-09-19T13:29:52;7.82;;;2.47;;
36355;SDS011;22384;54.302;18.596;2023-09-19T13:32:18;3.72;;;1.17;;
36355;SDS011;22384;54.302;18.596;2023-09-19T13:34:44;4.65;;;1.35;;
36355;SDS011;22384;54.302;18.596;2023-09-19T13:37:10;3.60;;;1.38;;
36355;SDS011;22384;54.302;18.596;2023-09-19T13:39:38;3.20;;;1.40;;
36355;SDS011;22384;54.302;18.596;2023-09-19T13:42:12;2.70;;;1.27;;
36355;SDS011;22384;54.302;18.596;2023-09-19T13:44:38;4.38;;;1.20;;
36355;SDS011;22384;54.302;18.596;2023-09-19T13:47:06;2.60;;;1.17;;
36355;SDS011;22384;54.302;18.596;2023-09-19T13:49:35;2.15;;;1.10;;
36355;SDS011;22384;54.302;18.596;2023-09-19T13:55:05;2.10;;;1.23;;
36355;SDS011;22384;54.302;18.596;2023-09-19T13:57:31;2.88;;;1.17;;
36355;SDS011;22384;54.302;18.596;2023-09-19T13:59:58;3.13;;;1.45;;
36355;SDS011;22384;54.302;18.596;2023-09-19T14:02:24;6.97;;;1.33;;
36355;SDS011;22384;54.302;18.596;2023-09-19T14:04:51;2.28;;;1.15;;
36355;SDS011;22384;54.302;18.596;2023-09-19T14:10:14;4.15;;;1.67;;
36355;SDS011;22384;54.302;18.596;2023-09-19T14:12:40;4.88;;;1.58;;
36355;SDS011;22384;54.302;18.596;2023-09-19T14:15:07;4.38;;;1.30;;
36355;SDS011;22384;54.302;18.596;2023-09-19T14:17:33;4.13;;;1.50;;
36355;SDS011;22384;54.302;18.596;2023-09-19T14:20:18;3.45;;;1.30;;
36355;SDS011;22384;54.302;18.596;2023-09-19T14:22:44;9.32;;;1.30;;
36355;SDS011;22384;54.302;18.596;2023-09-19T14:25:10;2.53;;;1.20;;
36355;SDS011;22384;54.302;18.596;2023-09-19T14:42:12;2.95;;;1.42;;
36355;SDS011;22384;54.302;18.596;2023-09-19T14:56:04;6.07;;;1.40;;
36355;SDS011;22384;54.302;18.596;2023-09-19T14:58:32;7.35;;;1.73;;
36355;SDS011;22384;54.302;18.596;2023-09-19T15:01:05;2.33;;;1.52;;
36355;SDS011;22384;54.302;18.596;2023-09-19T15:03:35;2.63;;;1.70;;
36355;SDS011;22384;54.302;18.596;2023-09-19T15:06:02;2.60;;;1.30;;
36355;SDS011;22384;54.302;18.596;2023-09-19T15:08:32;6.03;;;1.48;;
36355;SDS011;22384;54.302;18.596;2023-09-19T15:11:03;4.30;;;1.23;;
36355;SDS011;22384;54.302;18.596;2023-09-19T15:19:39;6.13;;;1.38;;
36355;SDS011;22384;54.302;18.596;2023-09-19T15:22:05;6.63;;;1.20;;
36355;SDS011;22384;54.302;18.596;2023-09-19T15:52:41;9.55;;;2.28;;
36355;SDS011;22384;54.302;18.596;2023-09-19T15:55:07;3.75;;;1.90;;
36355;SDS011;22384;54.302;18.596;2023-09-19T15:57:36;5.80;;;2.35;;
36355;SDS011;22384;54.302;18.596;2023-09-19T16:00:09;4.97;;;1.90;;
36355;SDS011;22384;54.302;18.596;2023-09-19T16:02:37;9.18;;;1.85;;
36355;SDS011;22384;54.302;18.596;2023-09-19T16:08:06;5.38;;;2.13;;
36355;SDS011;22384;54.302;18.596;2023-09-19T16:10:35;4.85;;;2.13;;
36355;SDS011;22384;54.302;18.596;2023-09-19T16:13:03;5.60;;;1.70;;
36355;SDS011;22384;54.302;18.596;2023-09-19T16:15:29;5.50;;;2.53;;
36355;SDS011;22384;54.302;18.596;2023-09-19T16:17:55;8.70;;;2.17;;
36355;SDS011;22384;54.302;18.596;2023-09-19T16:20:21;11.38;;;2.53;;
36355;SDS011;22384;54.302;18.596;2023-09-19T16:22:48;7.03;;;2.28;;
36355;SDS011;22384;54.302;18.596;2023-09-19T16:25:14;8.85;;;2.40;;
36355;SDS011;22384;54.302;18.596;2023-09-19T16:27:41;8.75;;;2.75;;
36355;SDS011;22384;54.302;18.596;2023-09-19T16:30:07;7.43;;;3.25;;
36355;SDS011;22384;54.302;18.596;2023-09-19T16:32:34;7.40;;;2.38;;
36355;SDS011;22384;54.302;18.596;2023-09-19T16:35:01;10.10;;;2.00;;
36355;SDS011;22384;54.302;18.596;2023-09-19T16:37:27;5.10;;;2.17;;
36355;SDS011;22384;54.302;18.596;2023-09-19T16:39:53;11.05;;;2.08;;
36355;SDS011;22384;54.302;18.596;2023-09-19T16:42:19;15.05;;;3.50;;
36355;SDS011;22384;54.302;18.596;2023-09-19T16:44:46;13.68;;;4.10;;
36355;SDS011;22384;54.302;18.596;2023-09-19T16:47:12;10.75;;;3.10;;
36355;SDS011;22384;54.302;18.596;2023-09-19T16:49:43;9.05;;;2.50;;
36355;SDS011;22384;54.302;18.596;2023-09-19T16:54:59;6.90;;;2.72;;
36355;SDS011;22384;54.302;18.596;2023-09-19T16:57:28;5.53;;;1.88;;
36355;SDS011;22384;54.302;18.596;2023-09-19T16:59:57;8.20;;;2.10;;